sensor_id;sensor_type;location;lat;lon;timestamp;P1;durP1;ratioP1;P2;durP2;ratioP2
15155;SDS011;7678;50.058;8.306;2022-09-03T00:00:05;2.10;;;0.97;;
15155;SDS011;7678;50.058;8.306;2022-09-03T00:02:37;1.53;;;0.90;;
15155;SDS011;7678;50.058;8.306;2022-09-03T00:05:11;4.30;;;1.23;;
15155;SDS011;7678;50.058;8.306;2022-09-03T00:07:46;1.10;;;1.00;;
15155;SDS011;7678;50.058;8.306;2022-09-03T00:10:25;1.00;;;0.90;;
15155;SDS011;7678;50.058;8.306;2022-09-03T00:13:00;1.20;;;0.93;;
15155;SDS011;7678;50.058;8.306;2022-09-03T00:15:31;1.67;;;1.13;;
15155;SDS011;7678;50.058;8.306;2022-09-03T00:18:02;1.07;;;0.90;;
15155;SDS011;7678;50.058;8.306;2022-09-03T00:20:34;3.43;;;1.10;;
15155;SDS011;7678;50.058;8.306;2022-09-03T00:23:06;1.20;;;0.80;;
15155;SDS011;7678;50.058;8.306;2022-09-03T00:25:38;2.27;;;1.20;;
15155;SDS011;7678;50.058;8.306;2022-09-03T00:28:12;1.07;;;0.80;;
15155;SDS011;7678;50.058;8.306;2022-09-03T00:30:44;3.83;;;0.90;;
15155;SDS011;7678;50.058;8.306;2022-09-03T00:33:20;2.83;;;1.00;;
15155;SDS011;7678;50.058;8.306;2022-09-03T00:35:52;3.80;;;1.00;;
15155;SDS011;7678;50.058;8.306;2022-09-03T00:38:24;1.03;;;0.77;;
15155;SDS011;7678;50.058;8.306;2022-09-03T00:40:55;1.73;;;0.97;;
15155;SDS011;7678;50.058;8.306;2022-09-03T00:43:37;4.00;;;1.10;;
15155;SDS011;7678;50.058;8.306;2022-09-03T00:46:20;4.33;;;0.93;;
15155;SDS011;7678;50.058;8.306;2022-09-03T00:48:57;2.27;;;1.03;;
15155;SDS011;7678;50.058;8.306;2022-09-03T00:51:54;1.50;;;1.03;;
15155;SDS011;7678;50.058;8.306;2022-09-03T00:54:32;4.50;;;1.00;;
15155;SDS011;7678;50.058;8.306;2022-09-03T00:57:11;2.50;;;1.00;;
15155;SDS011;7678;50.058;8.306;2022-09-03T00:59:54;2.07;;;1.17;;
15155;SDS011;7678;50.058;8.306;2022-09-03T01:02:31;1.27;;;0.90;;
15155;SDS011;7678;50.058;8.306;2022-09-03T01:05:18;1.07;;;0.90;;
15155;SDS011;7678;50.058;8.306;2022-09-03T01:07:58;1.40;;;0.90;;
15155;SDS011;7678;50.058;8.306;2022-09-03T01:10:39;1.37;;;0.87;;
15155;SDS011;7678;50.058;8.306;2022-09-03T01:13:19;1.20;;;1.00;;
15155;SDS011;7678;50.058;8.306;2022-09-03T01:15:55;4.80;;;1.30;;
15155;SDS011;7678;50.058;8.306;2022-09-03T01:18:34;2.10;;;1.07;;
15155;SDS011;7678;50.058;8.306;2022-09-03T01:21:13;3.63;;;1.07;;
15155;SDS011;7678;50.058;8.306;2022-09-03T01:27:13;2.40;;;1.10;;
15155;SDS011;7678;50.058;8.306;2022-09-03T01:29:54;1.80;;;1.00;;
15155;SDS011;7678;50.058;8.306;2022-09-03T01:32:30;3.50;;;1.20;;
15155;SDS011;7678;50.058;8.306;2022-09-03T01:35:09;3.40;;;1.10;;
15155;SDS011;7678;50.058;8.306;2022-09-03T01:37:49;1.43;;;1.13;;
15155;SDS011;7678;50.058;8.306;2022-09-03T01:40:28;1.20;;;1.00;;
15155;SDS011;7678;50.058;8.306;2022-09-03T01:43:06;3.33;;;0.90;;
15155;SDS011;7678;50.058;8.306;2022-09-03T01:45:50;1.50;;;0.97;;
15155;SDS011;7678;50.058;8.306;2022-09-03T01:48:31;1.93;;;0.80;;
15155;SDS011;7678;50.058;8.306;2022-09-03T01:51:10;2.63;;;1.00;;
15155;SDS011;7678;50.058;8.306;2022-09-03T01:54:01;1.03;;;0.93;;
15155;SDS011;7678;50.058;8.306;2022-09-03T01:56:50;1.90;;;1.00;;
15155;SDS011;7678;50.058;8.306;2022-09-03T01:59:58;5.23;;;1.50;;
15155;SDS011;7678;50.058;8.306;2022-09-03T02:02:30;1.30;;;1.07;;
15155;SDS011;7678;50.058;8.306;2022-09-03T02:05:02;1.57;;;1.10;;
15155;SDS011;7678;50.058;8.306;2022-09-03T02:07:33;1.90;;;1.10;;
15155;SDS011;7678;50.058;8.306;2022-09-03T02:10:04;0.90;;;0.90;;
15155;SDS011;7678;50.058;8.306;2022-09-03T02:12:35;1.67;;;1.07;;
15155;SDS011;7678;50.058;8.306;2022-09-03T02:15:05;3.80;;;1.00;;
15155;SDS011;7678;50.058;8.306;2022-09-03T02:17:39;2.30;;;1.17;;
15155;SDS011;7678;50.058;8.306;2022-09-03T02:20:11;1.83;;;1.10;;
15155;SDS011;7678;50.058;8.306;2022-09-03T02:22:45;1.47;;;1.07;;
15155;SDS011;7678;50.058;8.306;2022-09-03T02:25:15;1.17;;;0.93;;
15155;SDS011;7678;50.058;8.306;2022-09-03T02:27:43;1.90;;;1.00;;
15155;SDS011;7678;50.058;8.306;2022-09-03T02:30:12;3.10;;;0.90;;
15155;SDS011;7678;50.058;8.306;2022-09-03T02:32:41;0.83;;;0.70;;
15155;SDS011;7678;50.058;8.306;2022-09-03T02:35:09;1.43;;;1.07;;
15155;SDS011;7678;50.058;8.306;2022-09-03T02:37:38;1.50;;;1.10;;
15155;SDS011;7678;50.058;8.306;2022-09-03T02:40:07;1.00;;;0.90;;
15155;SDS011;7678;50.058;8.306;2022-09-03T02:42:36;1.50;;;1.07;;
15155;SDS011;7678;50.058;8.306;2022-09-03T02:45:06;1.20;;;1.10;;
15155;SDS011;7678;50.058;8.306;2022-09-03T02:47:44;3.50;;;1.20;;
15155;SDS011;7678;50.058;8.306;2022-09-03T02:50:16;0.90;;;0.70;;
15155;SDS011;7678;50.058;8.306;2022-09-03T02:52:44;1.77;;;1.10;;
15155;SDS011;7678;50.058;8.306;2022-09-03T02:55:12;1.13;;;0.90;;
15155;SDS011;7678;50.058;8.306;2022-09-03T02:57:40;1.47;;;1.00;;
15155;SDS011;7678;50.058;8.306;2022-09-03T03:00:09;1.60;;;1.00;;
15155;SDS011;7678;50.058;8.306;2022-09-03T03:02:38;1.37;;;1.00;;
15155;SDS011;7678;50.058;8.306;2022-09-03T03:05:08;2.27;;;1.13;;
15155;SDS011;7678;50.058;8.306;2022-09-03T03:07:41;0.93;;;0.80;;
15155;SDS011;7678;50.058;8.306;2022-09-03T03:10:09;4.67;;;1.13;;
15155;SDS011;7678;50.058;8.306;2022-09-03T03:12:38;2.03;;;1.10;;
15155;SDS011;7678;50.058;8.306;2022-09-03T03:15:06;1.33;;;1.00;;
15155;SDS011;7678;50.058;8.306;2022-09-03T03:17:34;1.10;;;1.00;;
15155;SDS011;7678;50.058;8.306;2022-09-03T03:20:02;2.93;;;0.83;;
15155;SDS011;7678;50.058;8.306;2022-09-03T03:22:32;1.20;;;1.10;;
15155;SDS011;7678;50.058;8.306;2022-09-03T03:25:00;2.80;;;1.10;;
15155;SDS011;7678;50.058;8.306;2022-09-03T03:27:28;2.03;;;1.03;;
15155;SDS011;7678;50.058;8.306;2022-09-03T03:29:56;1.40;;;0.90;;
15155;SDS011;7678;50.058;8.306;2022-09-03T03:32:25;1.13;;;0.97;;
15155;SDS011;7678;50.058;8.306;2022-09-03T03:34:53;2.40;;;0.90;;
15155;SDS011;7678;50.058;8.306;2022-09-03T03:37:21;1.87;;;1.17;;
15155;SDS011;7678;50.058;8.306;2022-09-03T03:39:51;3.03;;;1.03;;
15155;SDS011;7678;50.058;8.306;2022-09-03T03:42:19;1.23;;;0.80;;
15155;SDS011;7678;50.058;8.306;2022-09-03T03:44:47;1.80;;;0.93;;
15155;SDS011;7678;50.058;8.306;2022-09-03T03:47:15;1.43;;;1.07;;
15155;SDS011;7678;50.058;8.306;2022-09-03T03:49:43;4.20;;;1.00;;
15155;SDS011;7678;50.058;8.306;2022-09-03T03:52:11;1.77;;;1.07;;
15155;SDS011;7678;50.058;8.306;2022-09-03T03:54:39;1.83;;;1.10;;
15155;SDS011;7678;50.058;8.306;2022-09-03T03:57:08;3.10;;;1.00;;
15155;SDS011;7678;50.058;8.306;2022-09-03T03:59:36;3.43;;;1.10;;
15155;SDS011;7678;50.058;8.306;2022-09-03T04:02:04;1.33;;;1.03;;
15155;SDS011;7678;50.058;8.306;2022-09-03T04:04:32;1.53;;;0.97;;
15155;SDS011;7678;50.058;8.306;2022-09-03T04:07:00;1.20;;;0.93;;
15155;SDS011;7678;50.058;8.306;2022-09-03T04:09:28;2.27;;;1.10;;
15155;SDS011;7678;50.058;8.306;2022-09-03T04:11:56;3.57;;;1.10;;
15155;SDS011;7678;50.058;8.306;2022-09-03T04:14:26;4.20;;;1.37;;
15155;SDS011;7678;50.058;8.306;2022-09-03T04:16:54;2.67;;;1.00;;
15155;SDS011;7678;50.058;8.306;2022-09-03T04:19:22;1.60;;;1.10;;
15155;SDS011;7678;50.058;8.306;2022-09-03T04:21:50;3.83;;;1.40;;
15155;SDS011;7678;50.058;8.306;2022-09-03T04:24:18;3.07;;;1.40;;
15155;SDS011;7678;50.058;8.306;2022-09-03T04:26:46;3.80;;;0.90;;
15155;SDS011;7678;50.058;8.306;2022-09-03T04:29:15;3.37;;;1.07;;
15155;SDS011;7678;50.058;8.306;2022-09-03T04:31:45;2.20;;;1.53;;
15155;SDS011;7678;50.058;8.306;2022-09-03T04:34:28;1.37;;;1.13;;
15155;SDS011;7678;50.058;8.306;2022-09-03T04:36:56;1.07;;;0.97;;
15155;SDS011;7678;50.058;8.306;2022-09-03T04:39:24;1.87;;;1.20;;
15155;SDS011;7678;50.058;8.306;2022-09-03T04:41:52;3.33;;;0.83;;
15155;SDS011;7678;50.058;8.306;2022-09-03T04:44:20;2.63;;;1.10;;
15155;SDS011;7678;50.058;8.306;2022-09-03T04:46:50;2.70;;;1.10;;
15155;SDS011;7678;50.058;8.306;2022-09-03T04:49:18;2.63;;;1.30;;
15155;SDS011;7678;50.058;8.306;2022-09-03T04:51:46;3.70;;;1.20;;
15155;SDS011;7678;50.058;8.306;2022-09-03T04:54:15;2.63;;;1.10;;
15155;SDS011;7678;50.058;8.306;2022-09-03T04:56:43;1.70;;;1.00;;
15155;SDS011;7678;50.058;8.306;2022-09-03T04:59:11;2.23;;;1.20;;
15155;SDS011;7678;50.058;8.306;2022-09-03T05:01:39;1.93;;;1.10;;
15155;SDS011;7678;50.058;8.306;2022-09-03T05:04:11;1.60;;;1.10;;
15155;SDS011;7678;50.058;8.306;2022-09-03T05:06:39;1.40;;;0.97;;
15155;SDS011;7678;50.058;8.306;2022-09-03T05:09:08;5.23;;;1.27;;
15155;SDS011;7678;50.058;8.306;2022-09-03T05:11:36;1.97;;;1.23;;
15155;SDS011;7678;50.058;8.306;2022-09-03T05:14:04;1.40;;;1.10;;
15155;SDS011;7678;50.058;8.306;2022-09-03T05:16:32;1.97;;;1.33;;
15155;SDS011;7678;50.058;8.306;2022-09-03T05:19:00;2.00;;;1.00;;
15155;SDS011;7678;50.058;8.306;2022-09-03T05:21:34;3.90;;;1.30;;
15155;SDS011;7678;50.058;8.306;2022-09-03T05:24:03;1.67;;;1.10;;
15155;SDS011;7678;50.058;8.306;2022-09-03T05:26:32;1.23;;;1.10;;
15155;SDS011;7678;50.058;8.306;2022-09-03T05:29:03;1.77;;;1.00;;
15155;SDS011;7678;50.058;8.306;2022-09-03T05:31:33;2.10;;;1.20;;
15155;SDS011;7678;50.058;8.306;2022-09-03T05:34:04;2.33;;;1.20;;
15155;SDS011;7678;50.058;8.306;2022-09-03T05:36:34;1.93;;;1.13;;
15155;SDS011;7678;50.058;8.306;2022-09-03T05:39:04;1.50;;;1.07;;
15155;SDS011;7678;50.058;8.306;2022-09-03T05:41:33;3.17;;;1.30;;
15155;SDS011;7678;50.058;8.306;2022-09-03T05:44:01;1.70;;;1.10;;
15155;SDS011;7678;50.058;8.306;2022-09-03T05:46:31;4.43;;;1.60;;
15155;SDS011;7678;50.058;8.306;2022-09-03T05:49:03;2.93;;;1.20;;
15155;SDS011;7678;50.058;8.306;2022-09-03T05:51:33;1.33;;;0.93;;
15155;SDS011;7678;50.058;8.306;2022-09-03T05:54:03;1.73;;;1.30;;
15155;SDS011;7678;50.058;8.306;2022-09-03T05:56:33;3.10;;;1.30;;
15155;SDS011;7678;50.058;8.306;2022-09-03T05:59:05;3.93;;;1.40;;
15155;SDS011;7678;50.058;8.306;2022-09-03T06:01:35;1.53;;;1.30;;
15155;SDS011;7678;50.058;8.306;2022-09-03T06:04:05;2.70;;;1.10;;
15155;SDS011;7678;50.058;8.306;2022-09-03T06:06:35;2.93;;;1.00;;
15155;SDS011;7678;50.058;8.306;2022-09-03T06:09:06;4.30;;;1.40;;
15155;SDS011;7678;50.058;8.306;2022-09-03T06:11:36;4.03;;;1.30;;
15155;SDS011;7678;50.058;8.306;2022-09-03T06:14:05;5.17;;;1.30;;
15155;SDS011;7678;50.058;8.306;2022-09-03T06:16:35;1.50;;;1.30;;
15155;SDS011;7678;50.058;8.306;2022-09-03T06:19:05;3.10;;;1.23;;
15155;SDS011;7678;50.058;8.306;2022-09-03T06:21:35;4.70;;;1.43;;
15155;SDS011;7678;50.058;8.306;2022-09-03T06:24:05;1.77;;;1.20;;
15155;SDS011;7678;50.058;8.306;2022-09-03T06:26:34;4.47;;;1.60;;
15155;SDS011;7678;50.058;8.306;2022-09-03T06:29:02;2.13;;;1.40;;
15155;SDS011;7678;50.058;8.306;2022-09-03T06:31:30;3.43;;;1.40;;
15155;SDS011;7678;50.058;8.306;2022-09-03T06:33:58;1.37;;;1.17;;
15155;SDS011;7678;50.058;8.306;2022-09-03T06:36:29;2.17;;;1.30;;
15155;SDS011;7678;50.058;8.306;2022-09-03T06:38:58;2.60;;;1.40;;
15155;SDS011;7678;50.058;8.306;2022-09-03T06:41:29;3.37;;;1.30;;
15155;SDS011;7678;50.058;8.306;2022-09-03T06:43:59;1.40;;;1.30;;
15155;SDS011;7678;50.058;8.306;2022-09-03T06:46:29;2.50;;;1.40;;
15155;SDS011;7678;50.058;8.306;2022-09-03T06:48:58;2.13;;;1.50;;
15155;SDS011;7678;50.058;8.306;2022-09-03T06:51:27;3.63;;;1.50;;
15155;SDS011;7678;50.058;8.306;2022-09-03T06:53:59;2.07;;;1.10;;
15155;SDS011;7678;50.058;8.306;2022-09-03T06:56:42;1.47;;;1.37;;
15155;SDS011;7678;50.058;8.306;2022-09-03T06:59:12;2.33;;;1.30;;
15155;SDS011;7678;50.058;8.306;2022-09-03T07:01:41;3.80;;;1.40;;
15155;SDS011;7678;50.058;8.306;2022-09-03T07:04:12;2.67;;;1.50;;
15155;SDS011;7678;50.058;8.306;2022-09-03T07:06:42;3.67;;;1.33;;
15155;SDS011;7678;50.058;8.306;2022-09-03T07:09:10;3.80;;;1.90;;
15155;SDS011;7678;50.058;8.306;2022-09-03T07:11:48;3.67;;;1.40;;
15155;SDS011;7678;50.058;8.306;2022-09-03T07:14:16;1.97;;;1.20;;
15155;SDS011;7678;50.058;8.306;2022-09-03T07:16:46;2.20;;;1.33;;
15155;SDS011;7678;50.058;8.306;2022-09-03T07:19:16;7.13;;;1.50;;
15155;SDS011;7678;50.058;8.306;2022-09-03T07:21:44;2.60;;;1.33;;
15155;SDS011;7678;50.058;8.306;2022-09-03T07:24:16;2.50;;;1.63;;
15155;SDS011;7678;50.058;8.306;2022-09-03T07:26:45;1.90;;;1.53;;
15155;SDS011;7678;50.058;8.306;2022-09-03T07:29:15;5.83;;;1.53;;
15155;SDS011;7678;50.058;8.306;2022-09-03T07:31:46;3.87;;;1.30;;
15155;SDS011;7678;50.058;8.306;2022-09-03T07:34:17;4.90;;;1.40;;
15155;SDS011;7678;50.058;8.306;2022-09-03T07:36:47;2.47;;;1.30;;
15155;SDS011;7678;50.058;8.306;2022-09-03T07:39:16;4.70;;;1.47;;
15155;SDS011;7678;50.058;8.306;2022-09-03T07:41:45;2.67;;;1.40;;
15155;SDS011;7678;50.058;8.306;2022-09-03T07:44:16;4.33;;;1.40;;
15155;SDS011;7678;50.058;8.306;2022-09-03T07:46:45;3.80;;;1.50;;
15155;SDS011;7678;50.058;8.306;2022-09-03T07:49:16;3.17;;;1.70;;
15155;SDS011;7678;50.058;8.306;2022-09-03T07:51:45;2.43;;;1.47;;
15155;SDS011;7678;50.058;8.306;2022-09-03T07:54:15;1.97;;;1.53;;
15155;SDS011;7678;50.058;8.306;2022-09-03T07:56:45;3.17;;;1.60;;
15155;SDS011;7678;50.058;8.306;2022-09-03T07:59:13;3.07;;;1.70;;
15155;SDS011;7678;50.058;8.306;2022-09-03T08:01:42;3.43;;;1.93;;
15155;SDS011;7678;50.058;8.306;2022-09-03T08:04:10;3.40;;;1.80;;
15155;SDS011;7678;50.058;8.306;2022-09-03T08:06:39;4.90;;;2.17;;
15155;SDS011;7678;50.058;8.306;2022-09-03T08:09:08;5.07;;;2.13;;
15155;SDS011;7678;50.058;8.306;2022-09-03T08:11:39;7.80;;;2.57;;
15155;SDS011;7678;50.058;8.306;2022-09-03T08:14:09;8.53;;;2.53;;
15155;SDS011;7678;50.058;8.306;2022-09-03T08:16:39;4.80;;;2.60;;
15155;SDS011;7678;50.058;8.306;2022-09-03T08:19:10;6.27;;;2.40;;
15155;SDS011;7678;50.058;8.306;2022-09-03T08:21:39;6.97;;;2.60;;
15155;SDS011;7678;50.058;8.306;2022-09-03T08:24:08;6.57;;;2.67;;
15155;SDS011;7678;50.058;8.306;2022-09-03T08:26:37;6.63;;;2.57;;
15155;SDS011;7678;50.058;8.306;2022-09-03T08:29:07;5.40;;;2.43;;
15155;SDS011;7678;50.058;8.306;2022-09-03T08:31:35;7.30;;;2.57;;
15155;SDS011;7678;50.058;8.306;2022-09-03T08:34:05;4.90;;;2.40;;
15155;SDS011;7678;50.058;8.306;2022-09-03T08:36:38;4.60;;;2.57;;
15155;SDS011;7678;50.058;8.306;2022-09-03T08:39:08;2.70;;;2.10;;
15155;SDS011;7678;50.058;8.306;2022-09-03T08:41:40;3.13;;;1.80;;
15155;SDS011;7678;50.058;8.306;2022-09-03T08:44:28;2.97;;;1.80;;
15155;SDS011;7678;50.058;8.306;2022-09-03T08:47:01;4.20;;;2.00;;
15155;SDS011;7678;50.058;8.306;2022-09-03T08:49:33;3.70;;;2.00;;
15155;SDS011;7678;50.058;8.306;2022-09-03T08:52:12;4.17;;;2.30;;
15155;SDS011;7678;50.058;8.306;2022-09-03T08:54:49;4.83;;;2.10;;
15155;SDS011;7678;50.058;8.306;2022-09-03T08:57:18;4.37;;;2.03;;
15155;SDS011;7678;50.058;8.306;2022-09-03T08:59:49;5.90;;;1.97;;
15155;SDS011;7678;50.058;8.306;2022-09-03T09:02:23;5.63;;;2.67;;
15155;SDS011;7678;50.058;8.306;2022-09-03T09:05:01;2.57;;;1.80;;
15155;SDS011;7678;50.058;8.306;2022-09-03T09:07:41;2.90;;;1.73;;
15155;SDS011;7678;50.058;8.306;2022-09-03T09:10:15;5.33;;;1.93;;
15155;SDS011;7678;50.058;8.306;2022-09-03T09:12:52;4.43;;;2.03;;
15155;SDS011;7678;50.058;8.306;2022-09-03T09:15:34;3.80;;;1.90;;
15155;SDS011;7678;50.058;8.306;2022-09-03T09:18:10;2.57;;;1.97;;
15155;SDS011;7678;50.058;8.306;2022-09-03T09:20:47;2.60;;;1.80;;
15155;SDS011;7678;50.058;8.306;2022-09-03T09:23:21;2.13;;;1.77;;
15155;SDS011;7678;50.058;8.306;2022-09-03T09:25:54;5.70;;;2.00;;
15155;SDS011;7678;50.058;8.306;2022-09-03T09:28:28;3.53;;;1.73;;
15155;SDS011;7678;50.058;8.306;2022-09-03T09:31:00;4.20;;;2.07;;
15155;SDS011;7678;50.058;8.306;2022-09-03T09:33:30;4.23;;;1.80;;
15155;SDS011;7678;50.058;8.306;2022-09-03T09:36:00;3.67;;;1.93;;
15155;SDS011;7678;50.058;8.306;2022-09-03T09:38:35;6.00;;;2.00;;
15155;SDS011;7678;50.058;8.306;2022-09-03T09:41:09;3.17;;;2.07;;
15155;SDS011;7678;50.058;8.306;2022-09-03T09:43:38;1.87;;;1.63;;
15155;SDS011;7678;50.058;8.306;2022-09-03T09:46:08;2.43;;;1.80;;
15155;SDS011;7678;50.058;8.306;2022-09-03T09:48:43;5.33;;;2.00;;
15155;SDS011;7678;50.058;8.306;2022-09-03T09:51:17;5.90;;;2.00;;
15155;SDS011;7678;50.058;8.306;2022-09-03T09:53:58;3.20;;;1.90;;
15155;SDS011;7678;50.058;8.306;2022-09-03T09:56:28;3.40;;;2.07;;
15155;SDS011;7678;50.058;8.306;2022-09-03T09:59:03;6.43;;;2.60;;
15155;SDS011;7678;50.058;8.306;2022-09-03T10:01:32;3.50;;;2.33;;
15155;SDS011;7678;50.058;8.306;2022-09-03T10:04:07;2.40;;;2.07;;
15155;SDS011;7678;50.058;8.306;2022-09-03T10:06:37;2.10;;;1.90;;
15155;SDS011;7678;50.058;8.306;2022-09-03T10:09:24;3.20;;;2.10;;
15155;SDS011;7678;50.058;8.306;2022-09-03T10:12:00;5.53;;;2.20;;
15155;SDS011;7678;50.058;8.306;2022-09-03T10:14:35;2.43;;;1.80;;
15155;SDS011;7678;50.058;8.306;2022-09-03T10:17:08;3.27;;;2.53;;
15155;SDS011;7678;50.058;8.306;2022-09-03T10:19:41;5.33;;;2.30;;
15155;SDS011;7678;50.058;8.306;2022-09-03T10:22:35;5.63;;;2.30;;
15155;SDS011;7678;50.058;8.306;2022-09-03T10:25:24;3.03;;;2.37;;
15155;SDS011;7678;50.058;8.306;2022-09-03T10:27:54;3.63;;;1.90;;
15155;SDS011;7678;50.058;8.306;2022-09-03T10:30:27;3.07;;;2.20;;
15155;SDS011;7678;50.058;8.306;2022-09-03T10:32:58;3.03;;;2.13;;
15155;SDS011;7678;50.058;8.306;2022-09-03T10:35:36;3.53;;;2.17;;
15155;SDS011;7678;50.058;8.306;2022-09-03T10:38:14;3.17;;;2.07;;
15155;SDS011;7678;50.058;8.306;2022-09-03T10:40:50;3.20;;;1.90;;
15155;SDS011;7678;50.058;8.306;2022-09-03T10:43:39;4.23;;;2.30;;
15155;SDS011;7678;50.058;8.306;2022-09-03T10:46:25;2.70;;;2.00;;
15155;SDS011;7678;50.058;8.306;2022-09-03T10:51:49;4.17;;;2.30;;
15155;SDS011;7678;50.058;8.306;2022-09-03T10:54:31;3.67;;;2.33;;
15155;SDS011;7678;50.058;8.306;2022-09-03T10:57:07;2.37;;;1.90;;
15155;SDS011;7678;50.058;8.306;2022-09-03T10:59:48;3.07;;;1.90;;
15155;SDS011;7678;50.058;8.306;2022-09-03T11:02:39;2.93;;;2.20;;
15155;SDS011;7678;50.058;8.306;2022-09-03T11:05:26;3.73;;;2.50;;
15155;SDS011;7678;50.058;8.306;2022-09-03T11:07:58;3.37;;;2.03;;
15155;SDS011;7678;50.058;8.306;2022-09-03T11:10:32;2.43;;;2.20;;
15155;SDS011;7678;50.058;8.306;2022-09-03T11:13:03;2.87;;;2.30;;
15155;SDS011;7678;50.058;8.306;2022-09-03T11:15:36;2.77;;;2.10;;
15155;SDS011;7678;50.058;8.306;2022-09-03T11:18:11;2.20;;;2.00;;
15155;SDS011;7678;50.058;8.306;2022-09-03T11:20:46;2.53;;;2.33;;
15155;SDS011;7678;50.058;8.306;2022-09-03T11:23:16;3.10;;;2.30;;
15155;SDS011;7678;50.058;8.306;2022-09-03T11:25:46;4.47;;;2.10;;
15155;SDS011;7678;50.058;8.306;2022-09-03T11:28:22;2.77;;;2.30;;
15155;SDS011;7678;50.058;8.306;2022-09-03T11:31:04;3.27;;;2.67;;
15155;SDS011;7678;50.058;8.306;2022-09-03T11:33:42;4.07;;;2.20;;
15155;SDS011;7678;50.058;8.306;2022-09-03T11:36:19;3.33;;;2.20;;
15155;SDS011;7678;50.058;8.306;2022-09-03T11:38:53;3.47;;;2.20;;
15155;SDS011;7678;50.058;8.306;2022-09-03T11:41:25;8.97;;;2.30;;
15155;SDS011;7678;50.058;8.306;2022-09-03T11:43:55;2.70;;;1.80;;
15155;SDS011;7678;50.058;8.306;2022-09-03T11:46:29;2.73;;;2.10;;
15155;SDS011;7678;50.058;8.306;2022-09-03T11:49:08;2.70;;;1.90;;
15155;SDS011;7678;50.058;8.306;2022-09-03T11:51:38;2.40;;;2.10;;
15155;SDS011;7678;50.058;8.306;2022-09-03T11:54:22;3.13;;;2.10;;
15155;SDS011;7678;50.058;8.306;2022-09-03T11:57:02;2.83;;;2.30;;
15155;SDS011;7678;50.058;8.306;2022-09-03T11:59:38;3.27;;;2.20;;
15155;SDS011;7678;50.058;8.306;2022-09-03T12:04:58;2.43;;;1.77;;
15155;SDS011;7678;50.058;8.306;2022-09-03T12:07:41;4.43;;;1.87;;
15155;SDS011;7678;50.058;8.306;2022-09-03T12:10:35;4.67;;;2.10;;
15155;SDS011;7678;50.058;8.306;2022-09-03T12:19:20;2.87;;;1.97;;
15155;SDS011;7678;50.058;8.306;2022-09-03T12:21:55;3.70;;;1.90;;
15155;SDS011;7678;50.058;8.306;2022-09-03T12:24:25;2.13;;;1.83;;
15155;SDS011;7678;50.058;8.306;2022-09-03T12:27:03;1.83;;;1.60;;
15155;SDS011;7678;50.058;8.306;2022-09-03T12:29:33;1.90;;;1.67;;
15155;SDS011;7678;50.058;8.306;2022-09-03T12:32:05;2.50;;;1.60;;
15155;SDS011;7678;50.058;8.306;2022-09-03T12:34:36;2.03;;;1.70;;
15155;SDS011;7678;50.058;8.306;2022-09-03T12:37:13;2.67;;;1.93;;
15155;SDS011;7678;50.058;8.306;2022-09-03T12:40:14;2.30;;;2.00;;
15155;SDS011;7678;50.058;8.306;2022-09-03T12:42:45;2.10;;;1.80;;
15155;SDS011;7678;50.058;8.306;2022-09-03T12:45:17;2.60;;;1.83;;
15155;SDS011;7678;50.058;8.306;2022-09-03T12:47:48;2.27;;;1.60;;
15155;SDS011;7678;50.058;8.306;2022-09-03T12:50:19;1.93;;;1.57;;
15155;SDS011;7678;50.058;8.306;2022-09-03T12:52:49;2.37;;;1.70;;
15155;SDS011;7678;50.058;8.306;2022-09-03T12:55:25;2.97;;;1.93;;
15155;SDS011;7678;50.058;8.306;2022-09-03T12:58:00;4.97;;;1.70;;
15155;SDS011;7678;50.058;8.306;2022-09-03T13:00:39;1.93;;;1.53;;
15155;SDS011;7678;50.058;8.306;2022-09-03T13:03:13;2.97;;;1.90;;
15155;SDS011;7678;50.058;8.306;2022-09-03T13:05:48;3.33;;;1.70;;
15155;SDS011;7678;50.058;8.306;2022-09-03T13:08:21;1.73;;;1.40;;
15155;SDS011;7678;50.058;8.306;2022-09-03T13:10:52;3.40;;;1.80;;
15155;SDS011;7678;50.058;8.306;2022-09-03T13:13:23;2.67;;;1.47;;
15155;SDS011;7678;50.058;8.306;2022-09-03T13:16:05;3.10;;;1.80;;
15155;SDS011;7678;50.058;8.306;2022-09-03T13:18:52;1.77;;;1.50;;
15155;SDS011;7678;50.058;8.306;2022-09-03T13:21:31;3.77;;;1.70;;
15155;SDS011;7678;50.058;8.306;2022-09-03T13:24:13;1.67;;;1.53;;
15155;SDS011;7678;50.058;8.306;2022-09-03T13:27:05;2.13;;;1.50;;
15155;SDS011;7678;50.058;8.306;2022-09-03T13:29:55;2.17;;;1.40;;
15155;SDS011;7678;50.058;8.306;2022-09-03T13:32:32;2.13;;;1.50;;
15155;SDS011;7678;50.058;8.306;2022-09-03T13:35:20;1.70;;;1.40;;
15155;SDS011;7678;50.058;8.306;2022-09-03T13:37:56;2.43;;;1.60;;
15155;SDS011;7678;50.058;8.306;2022-09-03T13:40:32;3.23;;;1.83;;
15155;SDS011;7678;50.058;8.306;2022-09-03T13:43:05;3.67;;;1.50;;
15155;SDS011;7678;50.058;8.306;2022-09-03T13:45:49;4.00;;;1.30;;
15155;SDS011;7678;50.058;8.306;2022-09-03T13:48:23;2.43;;;1.10;;
15155;SDS011;7678;50.058;8.306;2022-09-03T13:51:12;2.00;;;1.40;;
15155;SDS011;7678;50.058;8.306;2022-09-03T13:53:50;2.83;;;1.60;;
15155;SDS011;7678;50.058;8.306;2022-09-03T13:56:29;2.13;;;1.20;;
15155;SDS011;7678;50.058;8.306;2022-09-03T13:59:11;2.77;;;1.30;;
15155;SDS011;7678;50.058;8.306;2022-09-03T14:02:01;1.47;;;1.23;;
15155;SDS011;7678;50.058;8.306;2022-09-03T14:04:43;1.77;;;1.40;;
15155;SDS011;7678;50.058;8.306;2022-09-03T14:07:33;1.30;;;1.10;;
15155;SDS011;7678;50.058;8.306;2022-09-03T14:10:26;1.73;;;1.30;;
15155;SDS011;7678;50.058;8.306;2022-09-03T14:13:11;4.33;;;1.40;;
15155;SDS011;7678;50.058;8.306;2022-09-03T14:15:46;2.03;;;1.33;;
15155;SDS011;7678;50.058;8.306;2022-09-03T14:18:26;1.50;;;1.23;;
15155;SDS011;7678;50.058;8.306;2022-09-03T14:21:09;2.27;;;1.23;;
15155;SDS011;7678;50.058;8.306;2022-09-03T14:23:52;2.40;;;1.27;;
15155;SDS011;7678;50.058;8.306;2022-09-03T14:26:36;1.70;;;1.20;;
15155;SDS011;7678;50.058;8.306;2022-09-03T14:29:22;2.73;;;1.27;;
15155;SDS011;7678;50.058;8.306;2022-09-03T14:32:16;2.17;;;1.57;;
15155;SDS011;7678;50.058;8.306;2022-09-03T14:35:17;1.40;;;1.30;;
15155;SDS011;7678;50.058;8.306;2022-09-03T14:40:56;2.27;;;1.33;;
15155;SDS011;7678;50.058;8.306;2022-09-03T14:43:46;3.23;;;1.20;;
15155;SDS011;7678;50.058;8.306;2022-09-03T14:46:41;2.50;;;1.47;;
15155;SDS011;7678;50.058;8.306;2022-09-03T14:49:20;1.70;;;1.60;;
15155;SDS011;7678;50.058;8.306;2022-09-03T14:52:11;2.53;;;1.60;;
15155;SDS011;7678;50.058;8.306;2022-09-03T14:54:54;1.90;;;1.60;;
15155;SDS011;7678;50.058;8.306;2022-09-03T14:57:56;2.57;;;1.57;;
15155;SDS011;7678;50.058;8.306;2022-09-03T15:00:48;3.67;;;2.00;;
15155;SDS011;7678;50.058;8.306;2022-09-03T15:03:35;2.37;;;1.50;;
15155;SDS011;7678;50.058;8.306;2022-09-03T15:06:19;1.50;;;1.40;;
15155;SDS011;7678;50.058;8.306;2022-09-03T15:09:05;2.60;;;1.87;;
15155;SDS011;7678;50.058;8.306;2022-09-03T15:11:45;3.03;;;2.10;;
15155;SDS011;7678;50.058;8.306;2022-09-03T15:14:17;1.77;;;1.67;;
15155;SDS011;7678;50.058;8.306;2022-09-03T15:16:55;3.20;;;1.80;;
15155;SDS011;7678;50.058;8.306;2022-09-03T15:19:40;2.03;;;1.60;;
15155;SDS011;7678;50.058;8.306;2022-09-03T15:22:23;5.83;;;2.00;;
15155;SDS011;7678;50.058;8.306;2022-09-03T15:25:12;3.40;;;1.63;;
15155;SDS011;7678;50.058;8.306;2022-09-03T15:27:50;3.33;;;1.80;;
15155;SDS011;7678;50.058;8.306;2022-09-03T15:30:31;2.50;;;1.63;;
15155;SDS011;7678;50.058;8.306;2022-09-03T15:33:06;3.00;;;2.07;;
15155;SDS011;7678;50.058;8.306;2022-09-03T15:35:44;2.83;;;2.00;;
15155;SDS011;7678;50.058;8.306;2022-09-03T15:38:31;2.80;;;1.90;;
15155;SDS011;7678;50.058;8.306;2022-09-03T15:41:08;4.10;;;1.93;;
15155;SDS011;7678;50.058;8.306;2022-09-03T15:43:45;2.73;;;1.87;;
15155;SDS011;7678;50.058;8.306;2022-09-03T15:46:29;7.47;;;2.07;;
15155;SDS011;7678;50.058;8.306;2022-09-03T15:49:05;1.83;;;1.73;;
15155;SDS011;7678;50.058;8.306;2022-09-03T15:51:41;2.07;;;1.87;;
15155;SDS011;7678;50.058;8.306;2022-09-03T15:54:18;2.90;;;1.97;;
15155;SDS011;7678;50.058;8.306;2022-09-03T15:56:57;3.43;;;2.17;;
15155;SDS011;7678;50.058;8.306;2022-09-03T15:59:34;1.73;;;1.63;;
15155;SDS011;7678;50.058;8.306;2022-09-03T16:02:08;2.60;;;1.97;;